Time;durP1;ratioP1;P1;durP2;ratioP2;P2;SDS_P1;SDS_P2;PMS_P1;PMS_P2;Temp;Humidity;BMP_temperature;BMP_pressure;BME280_temperature;BME280_humidity;BME280_pressure;Samples;Min_cycle;Max_cycle;Signal;HPM_P1;HPM_P2
2020/12/08 00:00:21;;;;;;;10.48;7.22;;;;;;;5.85;72.67;94719.06;4989209;28;20571;-67
2020/12/08 00:02:51;;;;;;;13.68;8.13;;;;;;;5.86;72.75;94706.81;4990190;28;20276;-68
2020/12/08 00:05:21;;;;;;;10.95;7.50;;;;;;;5.97;72.60;94719.00;4989428;28;20195;-68
2020/12/08 00:07:48;;;;;;;10.88;7.00;;;;;;;5.89;72.06;94714.94;4990130;28;20645;-68
2020/12/08 00:10:19;;;;;;;11.55;7.07;;;;;;;5.84;71.96;94719.25;4988422;28;20284;-68
2020/12/08 00:12:52;;;;;;;11.07;7.03;;;;;;;5.86;71.47;94712.81;4989878;28;20249;-68
2020/12/08 00:15:19;;;;;;;12.00;8.68;;;;;;;5.78;71.17;94720.16;4991151;28;20194;-69
2020/12/08 00:17:47;;;;;;;13.15;8.13;;;;;;;5.66;71.42;94727.97;4990894;28;20206;-67
2020/12/08 00:20:16;;;;;;;12.63;7.95;;;;;;;5.69;71.85;94724.13;4989060;28;20262;-69
2020/12/08 00:22:42;;;;;;;8.98;5.75;;;;;;;5.62;71.65;94726.06;4989691;28;20234;-68
2020/12/08 00:25:10;;;;;;;6.28;4.22;;;;;;;5.62;70.97;94739.06;4989318;28;20598;-68
2020/12/08 00:27:36;;;;;;;6.75;4.38;;;;;;;5.37;71.92;94741.09;4992476;28;20202;-67
2020/12/08 00:30:09;;;;;;;7.47;3.90;;;;;;;5.41;71.95;94747.44;4992636;28;20206;-68
2020/12/08 00:32:40;;;;;;;5.90;3.78;;;;;;;5.46;71.95;94747.53;4993264;28;20198;-68
2020/12/08 00:35:07;;;;;;;6.13;3.42;;;;;;;5.44;71.76;94739.19;4993118;28;20577;-67
2020/12/08 00:37:35;;;;;;;5.00;3.05;;;;;;;5.61;71.12;94750.47;4993104;28;20281;-68
2020/12/08 00:40:03;;;;;;;5.15;2.80;;;;;;;5.57;71.08;94741.53;4992493;28;20288;-68
2020/12/08 00:42:29;;;;;;;5.18;2.70;;;;;;;5.64;70.88;94755.22;4993179;28;20198;-67
2020/12/08 00:44:56;;;;;;;3.47;2.38;;;;;;;5.61;71.38;94755.66;4975061;28;20202;-69
2020/12/08 00:47:23;;;;;;;5.38;3.10;;;;;;;5.58;70.91;94756.94;4993038;28;20186;-68
2020/12/08 00:49:50;;;;;;;5.13;3.10;;;;;;;5.47;71.20;94755.13;4992914;28;20277;-67
2020/12/08 00:52:17;;;;;;;5.75;3.30;;;;;;;5.49;71.45;94754.91;4991643;28;20202;-69
2020/12/08 00:54:43;;;;;;;5.88;3.80;;;;;;;5.41;71.36;94750.84;4992795;28;20226;-67
2020/12/08 00:57:19;;;;;;;5.95;3.60;;;;;;;5.53;71.46;94753.44;4992863;28;20206;-68
2020/12/08 00:59:46;;;;;;;9.07;6.72;;;;;;;5.44;70.88;94744.41;4974719;28;20230;-68
2020/12/08 01:02:18;;;;;;;9.48;7.10;;;;;;;5.45;71.29;94751.97;4993120;28;20671;-68
2020/12/08 01:04:47;;;;;;;10.07;7.22;;;;;;;5.48;71.36;94746.31;4974687;28;20201;-69
2020/12/08 01:07:16;;;;;;;7.57;5.57;;;;;;;5.53;70.61;94761.22;4975167;28;20300;-69
2020/12/08 01:09:44;;;;;;;6.53;5.25;;;;;;;5.40;70.95;94764.81;4992504;28;20668;-70
2020/12/08 01:12:10;;;;;;;6.93;5.95;;;;;;;5.36;71.36;94773.31;4991248;28;20280;-68
2020/12/08 01:14:37;;;;;;;9.43;6.75;;;;;;;5.19;72.50;94768.00;4992078;28;20202;-68
2020/12/08 01:17:06;;;;;;;7.45;5.63;;;;;;;5.51;71.47;94771.06;4990989;28;20302;-67
2020/12/08 01:19:35;;;;;;;5.68;4.28;;;;;;;5.34;71.39;94757.16;4990444;28;20340;-67
2020/12/08 01:22:05;;;;;;;7.88;5.13;;;;;;;5.29;72.03;94772.63;4991213;28;20236;-68
2020/12/08 01:24:32;;;;;;;11.07;8.82;;;;;;;5.10;72.37;94771.94;4990632;28;20287;-67
2020/12/08 01:26:59;;;;;;;9.55;8.48;;;;;;;5.18;71.58;94770.81;4991146;28;20206;-70
2020/12/08 01:29:26;;;;;;;11.32;10.13;;;;;;;5.11;71.85;94761.31;4991992;28;20285;-68
2020/12/08 01:31:53;;;;;;;13.68;11.05;;;;;;;5.18;71.36;94768.22;4974835;28;20691;-67
2020/12/08 01:34:21;;;;;;;13.57;11.48;;;;;;;5.23;71.05;94773.53;4991637;28;20183;-68
2020/12/08 01:36:51;;;;;;;12.98;11.55;;;;;;;5.32;71.58;94772.16;4992223;28;20234;-66
2020/12/08 01:39:20;;;;;;;13.77;12.38;;;;;;;5.42;71.58;94762.03;4973420;28;20234;-67
2020/12/08 01:41:47;;;;;;;12.82;10.88;;;;;;;5.39;70.58;94759.84;4974647;28;20218;-67
2020/12/08 01:44:15;;;;;;;13.63;11.38;;;;;;;5.41;70.28;94752.63;4991274;28;21108;-68
2020/12/08 01:46:43;;;;;;;13.52;12.07;;;;;;;5.51;70.04;94758.06;4974267;28;20765;-69
2020/12/08 01:49:10;;;;;;;12.43;11.13;;;;;;;5.60;70.09;94767.09;4975454;28;20236;-66
2020/12/08 01:51:39;;;;;;;13.15;11.20;;;;;;;5.54;69.98;94739.41;4974484;28;20213;-70
2020/12/08 01:54:07;;;;;;;14.52;11.43;;;;;;;5.70;70.16;94765.50;4974528;28;20202;-66
2020/12/08 01:56:41;;;;;;;14.13;11.55;;;;;;;5.68;70.27;94766.72;4974680;28;20699;-69
2020/12/08 01:59:10;;;;;;;13.00;10.90;;;;;;;5.63;70.64;94758.81;4974146;28;20224;-67
2020/12/08 02:01:40;;;;;;;13.35;10.43;;;;;;;5.72;70.40;94767.84;4974173;28;20218;-69
2020/12/08 02:04:08;;;;;;;12.52;10.40;;;;;;;5.67;70.55;94762.56;4973994;28;20201;-68
2020/12/08 02:06:36;;;;;;;12.85;11.43;;;;;;;5.68;70.82;94769.31;4974260;28;20709;-67
2020/12/08 02:09:03;;;;;;;13.00;11.55;;;;;;;5.66;71.08;94763.56;4973482;28;20198;-67
2020/12/08 02:11:34;;;;;;;15.07;12.30;;;;;;;5.73;70.93;94759.81;4991562;28;20637;-70
2020/12/08 02:14:00;;;;;;;10.50;9.38;;;;;;;5.74;70.36;94750.22;4990838;28;20506;-68
2020/12/08 02:16:28;;;;;;;8.20;7.22;;;;;;;5.52;70.27;94751.84;4991502;28;20266;-70
2020/12/08 02:18:55;;;;;;;9.70;7.38;;;;;;;5.51;70.49;94758.06;4973345;28;20269;-70
2020/12/08 02:21:34;;;;;;;10.75;9.30;;;;;;;5.51;70.57;94756.22;4991229;28;20682;-69
2020/12/08 02:24:09;;;;;;;10.82;9.63;;;;;;;5.62;70.40;94736.47;4973275;28;20229;-67
2020/12/08 02:26:38;;;;;;;12.65;10.13;;;;;;;5.72;70.33;94747.06;4973694;28;20211;-69
2020/12/08 02:29:08;;;;;;;11.45;9.40;;;;;;;5.72;70.55;94750.47;4973010;28;20582;-66
2020/12/08 02:31:40;;;;;;;10.50;9.20;;;;;;;5.77;70.34;94754.97;4991106;28;20237;-70
2020/12/08 02:34:08;;;;;;;10.73;8.52;;;;;;;5.83;70.09;94764.47;4973087;28;20222;-65
2020/12/08 02:36:36;;;;;;;10.30;7.43;;;;;;;5.62;70.56;94763.22;4973593;28;20202;-70
2020/12/08 02:39:04;;;;;;;7.95;7.00;;;;;;;5.75;69.99;94757.00;4973164;28;20257;-69
2020/12/08 02:41:31;;;;;;;7.63;6.82;;;;;;;5.83;69.89;94765.28;4989664;28;20216;-69
2020/12/08 02:43:59;;;;;;;8.60;7.22;;;;;;;5.71;70.76;94761.09;4972946;28;20661;-66
2020/12/08 02:46:25;;;;;;;11.95;7.22;;;;;;;5.66;70.34;94746.16;4989628;28;20202;-69
2020/12/08 02:48:55;;;;;;;7.45;5.78;;;;;;;5.69;69.70;94763.13;4972702;28;20194;-68
2020/12/08 02:51:26;;;;;;;6.18;5.10;;;;;;;5.42;70.21;94746.44;4973660;28;20297;-68
2020/12/08 02:53:56;;;;;;;6.10;5.20;;;;;;;5.34;70.81;94754.56;4972865;28;20707;-70
2020/12/08 02:56:24;;;;;;;6.35;5.00;;;;;;;5.64;70.28;94756.00;4989202;28;20206;-69
2020/12/08 02:58:54;;;;;;;5.22;4.30;;;;;;;5.58;70.34;94756.13;4990363;28;20195;-70
2020/12/08 03:01:21;;;;;;;4.25;3.75;;;;;;;5.45;70.30;94748.56;4989408;28;20210;-70
2020/12/08 03:03:52;;;;;;;6.15;4.28;;;;;;;5.37;70.94;94748.91;4972700;28;20317;-66
2020/12/08 03:06:22;;;;;;;5.68;3.60;;;;;;;5.39;71.15;94747.66;4972760;28;20219;-66
2020/12/08 03:08:50;;;;;;;5.32;3.20;;;;;;;5.45;70.13;94751.16;4972795;28;20675;-66
2020/12/08 03:11:17;;;;;;;3.60;3.10;;;;;;;5.47;70.16;94743.94;4990417;28;20281;-67
2020/12/08 03:13:44;;;;;;;3.75;2.85;;;;;;;5.41;70.81;94744.84;4972410;28;20210;-71
2020/12/08 03:16:16;;;;;;;4.20;3.05;;;;;;;5.60;70.21;94754.09;4990420;28;20282;-70
2020/12/08 03:18:49;;;;;;;4.22;3.20;;;;;;;5.63;69.98;94758.81;4972545;28;20642;-68
2020/12/08 03:21:15;;;;;;;3.78;3.03;;;;;;;5.57;70.58;94759.72;4990953;28;20229;-68
2020/12/08 03:23:42;;;;;;;5.20;3.20;;;;;;;5.48;70.52;94761.09;4993158;28;20257;-68
2020/12/08 03:26:08;;;;;;;4.03;2.65;;;;;;;5.59;70.18;94765.50;4990155;28;20205;-70
2020/12/08 03:28:35;;;;;;;3.72;2.83;;;;;;;5.44;69.48;94752.19;4972422;28;20240;-65
2020/12/08 03:31:02;;;;;;;5.32;3.42;;;;;;;5.22;70.31;94766.75;4972757;28;20210;-67
2020/12/08 03:33:31;;;;;;;5.05;3.28;;;;;;;5.25;70.97;94772.28;4972405;28;20293;-70
2020/12/08 03:35:58;;;;;;;7.75;4.03;;;;;;;5.20;71.30;94771.38;4972754;28;20586;-70
2020/12/08 03:38:25;;;;;;;6.05;3.90;;;;;;;5.34;71.35;94770.13;4972550;28;20754;-67
2020/12/08 03:40:52;;;;;;;6.57;4.05;;;;;;;5.32;71.50;94761.78;4973177;28;20245;-69
2020/12/08 03:43:27;;;;;;;6.32;4.20;;;;;;;5.31;71.37;94747.22;4972227;28;20206;-70
2020/12/08 03:45:54;;;;;;;6.63;4.45;;;;;;;5.39;71.58;94763.25;4972838;28;20260;-66
2020/12/08 03:48:21;;;;;;;6.93;4.75;;;;;;;5.23;71.00;94761.34;4972008;28;20202;-67
2020/12/08 03:50:51;;;;;;;9.10;5.70;;;;;;;5.29;71.27;94777.81;4972541;28;20202;-66
2020/12/08 03:53:22;;;;;;;7.82;5.13;;;;;;;5.11;71.47;94770.91;4971856;28;20213;-69
2020/12/08 03:55:58;;;;;;;7.80;5.53;;;;;;;5.09;71.60;94789.31;4972409;28;20213;-68
2020/12/08 03:58:26;;;;;;;8.40;5.80;;;;;;;4.98;72.07;94787.50;4988194;28;20217;-68
2020/12/08 04:00:53;;;;;;;10.38;6.28;;;;;;;5.10;72.01;94790.91;4972596;28;20219;-67
2020/12/08 04:03:23;;;;;;;7.30;5.38;;;;;;;5.03;72.53;94786.84;4991663;28;20264;-69
2020/12/08 04:05:51;;;;;;;9.48;5.88;;;;;;;5.04;72.65;94776.22;4976300;28;20202;-69
2020/12/08 04:08:18;;;;;;;8.82;6.30;;;;;;;5.02;73.53;94793.81;4975671;28;20292;-67
2020/12/08 04:10:50;;;;;;;7.78;6.03;;;;;;;5.14;72.93;94797.25;4976063;28;20742;-68
2020/12/08 04:13:18;;;;;;;10.00;7.00;;;;;;;5.12;72.50;94799.28;4975731;28;20211;-67
2020/12/08 04:15:48;;;;;;;11.07;6.90;;;;;;;5.00;72.62;94803.63;4976138;28;20207;-71
2020/12/08 04:18:16;;;;;;;10.35;7.68;;;;;;;5.09;72.74;94791.91;4975664;28;20237;-68
2020/12/08 04:20:47;;;;;;;9.95;7.25;;;;;;;5.20;72.55;94805.91;4993562;28;20673;-71
2020/12/08 04:23:16;;;;;;;10.13;6.85;;;;;;;5.10;72.57;94811.69;4975722;28;20301;-71
2020/12/08 04:25:43;;;;;;;12.07;7.43;;;;;;;4.99;73.38;94815.06;4976007;28;20203;-70
2020/12/08 04:28:11;;;;;;;9.68;6.78;;;;;;;4.98;73.02;94808.25;4993401;28;20187;-67
2020/12/08 04:30:38;;;;;;;9.32;6.32;;;;;;;5.13;72.45;94806.03;4976040;28;20214;-70
2020/12/08 04:33:07;;;;;;;11.63;6.80;;;;;;;5.10;72.78;94806.50;4975414;28;20218;-69
2020/12/08 04:35:34;;;;;;;10.07;6.45;;;;;;;5.10;73.18;94806.50;4993004;28;20199;-70
2020/12/08 04:38:01;;;;;;;10.45;7.20;;;;;;;5.21;72.92;94804.91;4993200;28;20281;-68
2020/12/08 04:40:27;;;;;;;9.48;6.82;;;;;;;5.29;73.27;94798.59;4993150;28;20232;-70
2020/12/08 04:42:54;;;;;;;9.85;6.97;;;;;;;5.20;73.60;94799.97;4992967;28;20225;-67
2020/12/08 04:45:22;;;;;;;11.32;7.63;;;;;;;5.26;72.99;94809.44;4992571;28;20673;-68
2020/12/08 04:47:50;;;;;;;11.00;7.30;;;;;;;5.20;73.11;94800.72;4993376;28;20227;-69
2020/12/08 04:50:18;;;;;;;9.73;6.95;;;;;;;5.32;73.40;94818.94;4992975;28;20680;-69
2020/12/08 04:52:49;;;;;;;10.15;7.20;;;;;;;5.35;73.10;94818.47;4993001;28;20325;-70
2020/12/08 04:55:17;;;;;;;12.68;8.63;;;;;;;5.18;73.54;94808.75;4998496;28;20218;-71
2020/12/08 04:57:44;;;;;;;12.70;8.40;;;;;;;5.28;73.39;94807.41;4992824;28;20201;-71
2020/12/08 05:00:12;;;;;;;10.65;8.00;;;;;;;5.50;72.78;94813.63;4992162;28;20688;-74
2020/12/08 05:02:45;;;;;;;10.65;7.40;;;;;;;5.46;72.31;94800.31;4992592;28;20640;-64
2020/12/08 05:05:13;;;;;;;10.45;7.78;;;;;;;5.45;72.65;94816.13;4987251;28;20221;-69
2020/12/08 05:07:39;;;;;;;12.35;8.35;;;;;;;5.37;72.85;94806.06;4992442;28;20647;-69
2020/12/08 05:10:06;;;;;;;10.82;7.50;;;;;;;5.32;72.91;94818.94;4992031;28;20202;-68
2020/12/08 05:12:32;;;;;;;11.20;7.78;;;;;;;5.40;72.76;94818.63;4992109;28;20193;-71
2020/12/08 05:14:59;;;;;;;13.50;7.60;;;;;;;5.33;72.88;94805.72;4991144;28;20278;-68
2020/12/08 05:17:27;;;;;;;10.68;6.95;;;;;;;5.30;72.84;94805.38;4992343;28;20205;-71
2020/12/08 05:20:02;;;;;;;9.50;7.00;;;;;;;5.39;72.76;94825.59;4991489;28;20242;-69
2020/12/08 05:22:29;;;;;;;11.60;7.68;;;;;;;5.32;72.96;94829.31;4992078;28;20232;-70
2020/12/08 05:25:07;;;;;;;11.15;7.38;;;;;;;5.21;72.70;94811.91;4991176;28;20285;-70
2020/12/08 05:27:34;;;;;;;12.57;7.63;;;;;;;5.24;72.18;94812.25;4992351;28;20221;-70
2020/12/08 05:30:06;;;;;;;11.50;7.93;;;;;;;5.30;71.84;94815.75;4991678;28;20201;-70
2020/12/08 05:32:43;;;;;;;12.63;8.10;;;;;;;5.41;72.04;94827.97;4992192;28;20221;-72
2020/12/08 05:35:12;;;;;;;43.10;10.57;;;;;;;5.54;71.79;94828.56;4991363;28;20202;-75
2020/12/08 05:37:42;;;;;;;13.07;8.90;;;;;;;5.56;71.87;94823.13;4992163;28;20306;-72
2020/12/08 05:40:14;;;;;;;11.88;8.38;;;;;;;5.45;71.00;94835.13;4991639;28;20269;-69
2020/12/08 05:42:43;;;;;;;13.10;8.65;;;;;;;5.18;71.78;94808.75;4990991;28;20197;-70
2020/12/08 05:45:20;;;;;;;12.25;8.23;;;;;;;5.32;72.16;94835.31;4990167;28;20201;-71
2020/12/08 05:47:54;;;;;;;12.77;8.30;;;;;;;5.46;72.29;94835.88;4974967;28;20257;-68
2020/12/08 05:50:23;;;;;;;12.50;8.23;;;;;;;5.31;72.74;94841.50;4991850;28;20273;-69
2020/12/08 05:52:55;;;;;;;12.57;8.30;;;;;;;5.37;72.59;94832.84;4992220;28;20210;-68
2020/12/08 05:55:29;;;;;;;9.95;7.45;;;;;;;5.39;72.36;94830.00;4991654;28;20260;-72
2020/12/08 05:58:04;;;;;;;10.75;8.13;;;;;;;5.04;72.73;94832.53;4991884;28;20193;-69
2020/12/08 06:00:31;;;;;;;11.02;7.65;;;;;;;5.24;72.94;94842.66;4991277;28;20225;-70
2020/12/08 06:03:09;;;;;;;10.32;8.20;;;;;;;5.47;72.71;94833.09;4991577;28;20202;-71
2020/12/08 06:05:37;;;;;;;12.52;9.18;;;;;;;5.41;73.12;94827.97;4991229;28;20194;-69
2020/12/08 06:08:19;;;;;;;13.32;8.77;;;;;;;5.48;73.34;94839.06;4992057;28;20213;-70
2020/12/08 06:10:46;;;;;;;12.35;8.50;;;;;;;5.53;74.00;94846.97;4991715;28;20214;-69
2020/12/08 06:13:33;;;;;;;17.77;10.23;;;;;;;5.55;73.90;94852.72;4991165;28;20547;-67
2020/12/08 06:16:12;;;;;;;18.75;11.73;;;;;;;5.46;74.20;94862.66;4991602;28;20209;-70
2020/12/08 06:18:39;;;;;;;21.77;12.60;;;;;;;5.50;73.58;94852.63;4991337;28;20700;-68
2020/12/08 06:21:27;;;;;;;19.65;12.27;;;;;;;5.41;73.91;94859.97;4990892;28;20242;-69
2020/12/08 06:23:59;;;;;;;17.65;11.20;;;;;;;5.37;74.09;94863.22;4991136;28;20249;-69
2020/12/08 06:26:27;;;;;;;22.48;12.73;;;;;;;5.37;74.31;94864.00;4990907;28;20191;-68
2020/12/08 06:28:55;;;;;;;20.67;12.80;;;;;;;5.48;74.02;94873.63;4992389;28;20598;-71
2020/12/08 06:31:22;;;;;;;24.58;14.32;;;;;;;5.56;73.97;94872.50;4991341;28;20230;-71
2020/12/08 06:34:04;;;;;;;24.27;14.95;;;;;;;5.46;74.11;94872.25;5106776;27;20529;-70
2020/12/08 06:36:31;;;;;;;24.65;15.02;;;;;;;5.45;73.70;94865.50;5107045;28;20191;-66
2020/12/08 06:39:05;;;;;;;26.33;15.43;;;;;;;5.44;73.91;94880.28;5101194;28;20637;-65
2020/12/08 06:41:37;;;;;;;23.08;14.63;;;;;;;5.56;73.70;94875.91;5106881;28;20185;-68
2020/12/08 06:44:04;;;;;;;21.35;13.52;;;;;;;5.64;73.84;94877.38;5106103;28;20218;-72
2020/12/08 06:46:32;;;;;;;120.15;73.45;;;;;;;5.78;72.91;94882.16;5106760;28;20194;-71
2020/12/08 06:49:11;;;;;;;39.05;26.60;;;;;;;5.67;73.17;94889.94;5101538;28;20547;-73
2020/12/08 06:51:38;;;;;;;26.70;16.10;;;;;;;5.67;73.51;94895.13;5086800;28;20195;-71
2020/12/08 06:54:14;;;;;;;25.35;15.55;;;;;;;5.71;73.37;94904.84;5086204;28;20191;-72
2020/12/08 06:56:41;;;;;;;29.70;17.90;;;;;;;5.76;73.06;94896.38;5091825;28;20218;-72
2020/12/08 06:59:08;;;;;;;32.10;19.67;;;;;;;5.79;72.77;94908.91;5096914;28;20191;-70
2020/12/08 07:01:35;;;;;;;32.50;18.95;;;;;;;5.67;72.46;94879.53;5099384;28;20252;-78
2020/12/08 07:04:02;;;;;;;28.95;17.15;;;;;;;5.58;73.18;94901.69;5105891;28;20191;-75
2020/12/08 07:06:28;;;;;;;28.98;16.70;;;;;;;5.80;73.13;94915.72;5106370;28;20205;-71
2020/12/08 07:08:55;;;;;;;26.35;15.88;;;;;;;5.62;73.05;94902.81;5106435;28;20202;-72
2020/12/08 07:11:24;;;;;;;298.50;211.05;;;;;;;5.68;73.48;94918.28;5106019;28;20222;-73
2020/12/08 07:13:54;;;;;;;435.25;374.15;;;;;;;5.66;73.56;94914.31;5106171;28;20286;-76
2020/12/08 07:16:22;;;;;;;24.73;16.13;;;;;;;5.58;73.35;94914.66;5107345;28;20189;-71
2020/12/08 07:18:49;;;;;;;20.88;12.18;;;;;;;5.81;72.28;94917.28;5104707;28;20210;-69
2020/12/08 07:21:18;;;;;;;22.80;13.30;;;;;;;5.75;71.94;94912.97;5106528;28;20599;-70
2020/12/08 07:24:04;;;;;;;19.75;12.80;;;;;;;5.85;71.97;94923.66;5105727;28;20202;-70
2020/12/08 07:26:31;;;;;;;19.55;12.90;;;;;;;5.84;72.03;94919.47;5105864;28;20186;-71
2020/12/08 07:28:58;;;;;;;24.08;13.73;;;;;;;5.82;72.74;94924.09;5105348;28;20269;-70
2020/12/08 07:31:30;;;;;;;20.27;13.43;;;;;;;5.97;72.25;94921.84;5105590;28;20198;-73
2020/12/08 07:34:00;;;;;;;19.38;13.00;;;;;;;5.88;72.54;94920.59;5095026;28;20266;-71
2020/12/08 07:36:31;;;;;;;20.67;12.68;;;;;;;5.92;72.80;94927.72;5104682;28;20262;-70
2020/12/08 07:39:02;;;;;;;18.20;13.05;;;;;;;5.73;72.84;94928.03;5101879;28;20214;-71
2020/12/08 07:41:30;;;;;;;21.73;12.68;;;;;;;5.83;72.30;94904.88;5104321;28;20209;-69
2020/12/08 07:43:58;;;;;;;18.42;12.55;;;;;;;6.01;72.70;94930.78;5095538;28;20195;-70
2020/12/08 07:46:25;;;;;;;21.55;13.10;;;;;;;6.07;72.40;94916.88;5090484;28;20199;-68
2020/12/08 07:49:02;;;;;;;18.25;12.85;;;;;;;6.06;71.70;94930.88;5089560;28;20198;-70
2020/12/08 07:51:29;;;;;;;17.77;12.60;;;;;;;6.09;71.57;94930.47;5090224;28;20199;-68
2020/12/08 07:53:56;;;;;;;18.05;13.45;;;;;;;6.04;72.26;94930.31;5089684;28;20265;-71
2020/12/08 07:56:27;;;;;;;20.08;13.85;;;;;;;6.23;72.66;94931.81;5090377;28;20266;-69
2020/12/08 07:58:54;;;;;;;24.23;14.30;;;;;;;6.39;72.38;94925.09;5084330;28;20195;-69
2020/12/08 08:01:21;;;;;;;23.35;13.98;;;;;;;6.43;72.26;94936.63;5087586;28;20191;-71
2020/12/08 08:03:47;;;;;;;104.15;68.85;;;;;;;6.40;71.89;94926.69;5089665;28;20190;-75
2020/12/08 08:06:16;;;;;;;93.57;71.00;;;;;;;6.41;71.53;94929.06;5070803;28;20201;-73
2020/12/08 08:08:47;;;;;;;26.67;16.70;;;;;;;6.21;71.88;94936.44;5070521;28;20643;-71
2020/12/08 08:11:15;;;;;;;26.63;18.23;;;;;;;6.46;70.88;94936.97;5070851;28;20181;-71
2020/12/08 08:13:41;;;;;;;27.85;17.65;;;;;;;6.44;70.28;94943.44;5069391;28;20303;-71
2020/12/08 08:16:11;;;;;;;24.77;17.30;;;;;;;6.50;70.91;94935.50;5071069;28;20220;-72
2020/12/08 08:18:38;;;;;;;24.40;16.67;;;;;;;6.61;70.63;94934.69;5070187;28;20204;-72
2020/12/08 08:21:06;;;;;;;23.17;16.67;;;;;;;6.63;70.60;94948.28;5070942;28;20298;-72
2020/12/08 08:23:36;;;;;;;23.35;15.60;;;;;;;6.64;70.85;94949.06;5070605;28;20216;-72
2020/12/08 08:26:06;;;;;;;22.73;16.33;;;;;;;6.64;70.47;94955.06;5070959;28;20649;-72
2020/12/08 08:28:33;;;;;;;25.67;15.90;;;;;;;6.66;70.83;94958.22;5070650;28;20206;-70
2020/12/08 08:31:00;;;;;;;26.17;16.92;;;;;;;6.70;70.48;94959.34;5070628;28;20670;-68
2020/12/08 08:33:27;;;;;;;26.65;16.92;;;;;;;6.68;72.26;94950.97;5076893;28;20280;-71
2020/12/08 08:35:54;;;;;;;27.77;18.63;;;;;;;6.86;71.29;94963.84;5090595;28;20206;-73
2020/12/08 08:38:25;;;;;;;27.90;18.83;;;;;;;6.89;70.78;94958.19;5089607;28;20195;-71
2020/12/08 08:40:57;;;;;;;29.75;19.83;;;;;;;6.82;69.57;94952.31;5089620;28;20187;-73
2020/12/08 08:43:27;;;;;;;38.15;22.77;;;;;;;6.80;70.76;94972.59;5089992;28;20635;-72
2020/12/08 08:45:57;;;;;;;36.17;22.35;;;;;;;6.57;69.82;94970.00;5090300;28;20200;-73
2020/12/08 08:48:23;;;;;;;36.97;21.95;;;;;;;6.46;70.14;94951.81;5089313;28;20274;-71
2020/12/08 08:50:50;;;;;;;30.10;19.98;;;;;;;6.75;69.59;94967.25;5089602;28;20195;-70
2020/12/08 08:53:17;;;;;;;35.25;21.05;;;;;;;6.79;69.38;94967.59;5089072;28;20303;-69
2020/12/08 08:55:44;;;;;;;36.17;22.80;;;;;;;6.76;69.61;94965.47;5088257;28;20206;-69
2020/12/08 08:58:13;;;;;;;40.38;23.30;;;;;;;6.73;70.19;94958.88;5088982;28;20191;-68
2020/12/08 09:00:40;;;;;;;49.28;32.53;;;;;;;6.75;70.47;94956.84;5088864;28;20183;-68
2020/12/08 09:03:09;;;;;;;39.00;25.17;;;;;;;6.72;70.68;94957.31;5088544;28;20184;-70
2020/12/08 09:05:37;;;;;;;43.22;26.90;;;;;;;6.76;70.96;94948.03;5088768;28;20202;-66
2020/12/08 09:08:04;;;;;;;46.78;28.00;;;;;;;6.81;70.64;94952.53;5089447;28;20195;-69
2020/12/08 09:10:31;;;;;;;42.97;27.77;;;;;;;6.84;70.62;94954.69;5089586;28;20294;-69
2020/12/08 09:12:57;;;;;;;44.63;28.02;;;;;;;6.64;71.16;94951.69;5089841;28;20743;-69
2020/12/08 09:15:25;;;;;;;48.78;29.15;;;;;;;6.68;71.30;94950.97;5089716;28;20223;-68
2020/12/08 09:17:51;;;;;;;51.78;31.13;;;;;;;6.54;71.80;94948.84;5090044;28;20194;-69
2020/12/08 09:20:19;;;;;;;49.03;29.65;;;;;;;6.72;70.98;94946.91;5089853;28;20737;-70
2020/12/08 09:22:46;;;;;;;55.45;31.58;;;;;;;6.82;70.63;94939.31;5089693;28;20188;-70
2020/12/08 09:25:13;;;;;;;53.72;32.47;;;;;;;6.80;71.91;94945.75;5089499;28;20197;-69
2020/12/08 09:27:39;;;;;;;60.30;36.13;;;;;;;6.89;74.12;94944.38;5088361;28;20191;-66
2020/12/08 09:30:06;;;;;;;64.85;38.72;;;;;;;7.08;73.95;94941.34;5089042;28;20581;-72
2020/12/08 09:32:32;;;;;;;65.13;38.80;;;;;;;7.17;71.85;94933.97;5088557;28;20295;-69
2020/12/08 09:34:58;;;;;;;60.17;37.47;;;;;;;7.06;69.86;94932.22;5089322;28;20189;-66
2020/12/08 09:37:26;;;;;;;60.72;37.78;;;;;;;7.10;70.76;94928.88;5090025;28;20187;-69
2020/12/08 09:39:53;;;;;;;60.72;37.28;;;;;;;6.94;71.15;94932.22;5088439;28;20685;-68
2020/12/08 09:42:20;;;;;;;60.00;38.78;;;;;;;6.92;70.87;94931.66;5089382;28;20692;-70
2020/12/08 09:44:48;;;;;;;70.88;40.50;;;;;;;6.92;71.58;94931.66;5088767;28;20876;-68
2020/12/08 09:47:16;;;;;;;63.30;38.10;;;;;;;6.85;70.99;94910.19;5087905;28;20187;-69
2020/12/08 09:49:45;;;;;;;67.35;38.72;;;;;;;7.08;72.14;94936.13;5088525;28;20273;-69
2020/12/08 09:52:14;;;;;;;65.43;40.42;;;;;;;7.12;71.67;94926.84;5089330;28;20199;-67
2020/12/08 09:54:41;;;;;;;69.47;41.83;;;;;;;7.19;71.12;94924.88;5088355;28;20199;-70
2020/12/08 09:57:07;;;;;;;66.25;41.10;;;;;;;7.15;71.33;94923.00;5088543;28;20369;-69
2020/12/08 09:59:35;;;;;;;72.55;42.55;;;;;;;7.08;70.94;94930.94;5088863;28;20199;-70
2020/12/08 10:04:48;;;;;;;100.05;63.35;;;;;;;7.20;69.79;94930.88;5088551;28;20191;-70
2020/12/08 10:07:17;;;;;;;81.00;50.05;;;;;;;7.05;70.40;94926.19;5089248;28;20657;-69
2020/12/08 10:09:47;;;;;;;72.82;43.15;;;;;;;7.22;68.47;94925.44;5088630;28;20191;-73
2020/12/08 10:12:15;;;;;;;65.75;41.75;;;;;;;6.92;68.51;94926.47;5088911;28;20297;-72
2020/12/08 10:14:43;;;;;;;67.47;42.30;;;;;;;7.03;68.00;94915.22;5088834;28;20265;-70
2020/12/08 10:17:13;;;;;;;74.20;43.95;;;;;;;6.97;67.61;94929.16;5088606;28;20732;-71
2020/12/08 10:19:41;;;;;;;71.78;42.33;;;;;;;7.00;68.37;94927.91;5087990;28;20657;-70
2020/12/08 10:22:08;;;;;;;75.47;44.45;;;;;;;6.93;69.18;94927.25;5088696;28;20675;-72
2020/12/08 10:24:34;;;;;;;67.50;42.10;;;;;;;6.94;68.99;94924.41;5088414;28;20659;-72
2020/12/08 10:27:01;;;;;;;77.38;44.67;;;;;;;7.09;68.02;94922.09;5088493;28;20203;-70
2020/12/08 10:29:29;;;;;;;72.85;43.38;;;;;;;7.22;68.14;94934.84;5088748;28;20669;-68
2020/12/08 10:31:55;;;;;;;62.28;39.75;;;;;;;7.03;69.02;94930.03;5091787;28;20252;-71
2020/12/08 10:34:22;;;;;;;68.72;41.83;;;;;;;7.03;68.66;94922.22;5092261;28;20233;-69
2020/12/08 10:36:48;;;;;;;64.80;39.35;;;;;;;7.05;68.83;94925.41;5088890;28;20580;-68
2020/12/08 10:39:15;;;;;;;62.50;38.90;;;;;;;6.99;68.40;94921.91;5087867;28;20637;-66
2020/12/08 10:41:41;;;;;;;62.78;38.28;;;;;;;7.26;67.52;94921.34;5088492;28;20282;-69
2020/12/08 10:44:08;;;;;;;65.43;40.28;;;;;;;7.06;68.53;94917.34;5086872;28;20297;-73
2020/12/08 10:46:36;;;;;;;66.35;39.70;;;;;;;7.40;67.47;94912.22;5087957;28;20197;-71
2020/12/08 10:49:04;;;;;;;61.97;39.50;;;;;;;7.59;68.63;94908.38;5088585;28;20596;-70
2020/12/08 10:51:31;;;;;;;66.88;41.15;;;;;;;7.68;68.21;94904.34;5088656;28;20203;-70
2020/12/08 10:53:58;;;;;;;64.00;37.60;;;;;;;7.73;67.93;94907.03;5088409;28;20710;-68
2020/12/08 10:56:25;;;;;;;60.35;37.03;;;;;;;7.89;67.27;94906.22;5089298;28;20176;-69
2020/12/08 10:58:52;;;;;;;63.85;38.70;;;;;;;7.91;67.30;94902.38;5089264;28;20871;-70
2020/12/08 11:01:23;;;;;;;60.40;38.03;;;;;;;8.22;67.69;94903.59;5080354;28;20203;-70
2020/12/08 11:03:51;;;;;;;58.72;36.13;;;;;;;8.61;66.36;94913.00;5069432;28;20961;-70
2020/12/08 11:06:25;;;;;;;51.57;34.00;;;;;;;8.42;64.78;94910.94;5068368;28;20572;-69
2020/12/08 11:08:53;;;;;;;49.78;31.05;;;;;;;7.91;65.05;94919.81;5067797;28;20461;-67
2020/12/08 11:11:23;;;;;;;56.30;33.78;;;;;;;8.15;64.98;94921.25;5068457;28;20200;-70
2020/12/08 11:13:51;;;;;;;53.55;32.72;;;;;;;8.31;65.76;94915.22;5067637;28;20224;-69
2020/12/08 11:16:19;;;;;;;69.80;46.95;;;;;;;8.03;65.43;94923.13;5068206;28;20280;-77
2020/12/08 11:18:47;;;;;;;64.47;41.92;;;;;;;8.29;65.37;94909.47;5068952;28;20198;-71
2020/12/08 11:21:14;;;;;;;50.80;32.72;;;;;;;8.32;65.15;94910.81;5072629;28;20224;-69
2020/12/08 11:23:41;;;;;;;50.67;32.27;;;;;;;8.40;65.69;94915.59;5072134;28;20278;-68
2020/12/08 11:26:11;;;;;;;53.90;32.90;;;;;;;8.61;65.42;94904.41;5072128;28;20927;-69
2020/12/08 11:28:38;;;;;;;47.37;31.23;;;;;;;8.64;64.44;94898.69;5072518;28;20473;-73
2020/12/08 11:31:05;;;;;;;49.10;32.17;;;;;;;8.72;63.68;94896.44;5071844;28;20461;-65
2020/12/08 11:33:44;;;;;;;50.77;33.30;;;;;;;8.99;62.38;94892.06;5080707;28;20566;-73
2020/12/08 11:36:11;;;;;;;50.97;32.83;;;;;;;9.72;60.89;94880.19;5092405;28;20491;-74
2020/12/08 11:38:38;;;;;;;52.30;32.03;;;;;;;10.60;60.02;94885.47;5091876;28;20927;-76
2020/12/08 11:41:05;;;;;;;52.60;32.27;;;;;;;11.36;57.05;94875.22;5092132;28;20934;-70